createdAt,value
2018-05-07T00:01:11.692Z,1.87
2018-05-07T00:03:39.064Z,1.90
2018-05-07T00:06:06.531Z,1.90
2018-05-07T00:08:33.971Z,1.97
2018-05-07T00:11:01.431Z,1.63
2018-05-07T00:13:28.906Z,1.80
2018-05-07T00:15:56.360Z,1.70
2018-05-07T00:18:23.807Z,1.63
2018-05-07T00:20:51.275Z,1.80
2018-05-07T00:23:18.724Z,1.90
2018-05-07T00:25:46.192Z,2.10
2018-05-07T00:28:13.660Z,2.00
2018-05-07T00:30:41.120Z,1.60
2018-05-07T00:33:08.597Z,1.77
2018-05-07T00:35:36.824Z,1.93
2018-05-07T00:38:04.272Z,1.80
2018-05-07T00:40:31.731Z,1.80
2018-05-07T00:42:59.195Z,1.80
2018-05-07T00:45:26.646Z,1.80
2018-05-07T00:47:54.099Z,1.70
2018-05-07T00:50:21.565Z,1.70
2018-05-07T00:52:49.016Z,1.60
2018-05-07T00:55:22.182Z,1.60
2018-05-07T00:57:50.396Z,1.87
2018-05-07T01:00:18.628Z,1.60
2018-05-07T01:02:46.080Z,2.10
2018-05-07T01:05:13.540Z,1.80
2018-05-07T01:07:40.994Z,1.73
2018-05-07T01:10:08.453Z,1.77
2018-05-07T01:12:36.675Z,1.60
2018-05-07T01:15:04.132Z,1.90
2018-05-07T01:17:31.604Z,2.13
2018-05-07T01:19:59.051Z,1.80
2018-05-07T01:22:26.513Z,2.00
2018-05-07T01:24:53.964Z,2.13
2018-05-07T01:27:21.421Z,1.60
2018-05-07T01:29:48.877Z,1.83
2018-05-07T01:32:16.331Z,1.87
2018-05-07T01:34:43.800Z,1.73
2018-05-07T01:37:11.257Z,2.20
2018-05-07T01:39:38.719Z,1.80
2018-05-07T01:42:06.177Z,2.20
2018-05-07T01:44:33.627Z,1.70
2018-05-07T01:47:01.089Z,2.30
2018-05-07T01:49:28.543Z,2.07
2018-05-07T01:51:55.991Z,1.83
2018-05-07T01:54:23.448Z,2.10
2018-05-07T01:56:50.906Z,1.80
2018-05-07T01:59:18.372Z,1.97
2018-05-07T02:01:45.828Z,1.90
2018-05-07T02:04:13.288Z,2.30
2018-05-07T02:06:40.748Z,2.03
2018-05-07T02:09:08.202Z,1.80
2018-05-07T02:11:35.660Z,2.30
2018-05-07T02:14:03.116Z,1.70
2018-05-07T02:16:30.572Z,1.87
2018-05-07T02:18:58.799Z,1.80
2018-05-07T02:21:26.262Z,1.90
2018-05-07T02:23:53.729Z,1.93
2018-05-07T02:26:21.184Z,2.13
2018-05-07T02:28:48.646Z,2.00
2018-05-07T02:31:16.240Z,1.63
2018-05-07T02:33:43.593Z,1.97
2018-05-07T02:36:11.050Z,2.23
2018-05-07T02:38:38.509Z,1.90
2018-05-07T02:41:05.973Z,1.90
2018-05-07T02:43:33.528Z,1.83
2018-05-07T02:46:00.989Z,1.87
2018-05-07T02:48:29.219Z,2.10
2018-05-07T02:50:56.693Z,1.90
2018-05-07T02:53:24.177Z,1.77
2018-05-07T02:55:53.176Z,1.90
2018-05-07T02:58:20.632Z,2.03
2018-05-07T03:00:48.884Z,1.90
2018-05-07T03:03:16.356Z,2.50
2018-05-07T03:05:43.812Z,1.90
2018-05-07T03:08:11.274Z,2.20
2018-05-07T03:10:38.751Z,2.00
2018-05-07T03:13:06.201Z,2.27
2018-05-07T03:15:33.648Z,2.00
2018-05-07T03:18:01.116Z,2.20
2018-05-07T03:20:29.376Z,1.90
2018-05-07T03:22:56.935Z,1.87
2018-05-07T03:25:24.392Z,2.17
2018-05-07T03:27:51.866Z,2.10
2018-05-07T03:30:19.324Z,1.90
2018-05-07T03:32:46.780Z,2.10
2018-05-07T03:35:14.223Z,2.00
2018-05-07T03:37:41.684Z,2.30
2018-05-07T03:40:09.146Z,2.47
2018-05-07T03:42:36.604Z,2.30
2018-05-07T03:45:04.847Z,1.80
2018-05-07T03:47:32.328Z,1.93
2018-05-07T03:49:59.788Z,2.10
2018-05-07T03:52:27.244Z,2.33
2018-05-07T03:54:54.708Z,2.30
2018-05-07T03:57:22.168Z,2.30
2018-05-07T03:59:49.628Z,2.47
2018-05-07T04:02:18.618Z,2.30
2018-05-07T04:04:47.604Z,2.00
2018-05-07T04:07:15.096Z,2.33
2018-05-07T04:09:42.520Z,2.33
2018-05-07T04:12:10.847Z,2.30
2018-05-07T04:14:38.330Z,1.90
2018-05-07T04:17:18.408Z,2.53
2018-05-07T04:19:57.656Z,1.67
2018-05-07T04:22:36.977Z,2.10
2018-05-07T04:25:04.433Z,2.10
2018-05-07T04:27:31.897Z,2.30
2018-05-07T04:29:59.361Z,2.10
2018-05-07T04:32:26.852Z,2.20
2018-05-07T04:34:55.085Z,2.17
2018-05-07T04:37:22.543Z,2.30
2018-05-07T04:39:49.996Z,1.90
2018-05-07T04:42:17.461Z,2.53
2018-05-07T04:44:44.913Z,2.20
2018-05-07T04:47:12.371Z,2.27
2018-05-07T04:49:39.835Z,2.40
2018-05-07T04:52:07.283Z,2.43
2018-05-07T04:54:34.740Z,2.50
2018-05-07T04:57:02.201Z,2.10
2018-05-07T04:59:29.659Z,2.13
2018-05-07T05:01:57.111Z,2.40
2018-05-07T05:04:24.573Z,2.47
2018-05-07T05:06:52.044Z,2.27
2018-05-07T05:09:19.496Z,2.43
2018-05-07T05:11:46.945Z,2.40
2018-05-07T05:14:14.412Z,2.10
2018-05-07T05:16:41.883Z,2.20
2018-05-07T05:19:09.353Z,2.30
2018-05-07T05:21:37.591Z,2.37
2018-05-07T05:24:05.044Z,2.40
2018-05-07T05:26:32.508Z,2.10
2018-05-07T05:28:59.967Z,2.50
2018-05-07T05:31:28.212Z,2.00
2018-05-07T05:33:55.677Z,2.57
2018-05-07T05:36:23.155Z,2.20
2018-05-07T05:38:50.612Z,2.43
2018-05-07T05:41:18.089Z,2.33
2018-05-07T05:43:45.557Z,2.33
2018-05-07T05:46:13.039Z,2.33
2018-05-07T05:48:40.497Z,2.60
2018-05-07T05:51:08.721Z,2.00
2018-05-07T05:53:36.179Z,2.20
2018-05-07T05:56:03.635Z,2.03
2018-05-07T05:58:31.092Z,2.50
2018-05-07T06:00:58.576Z,2.50
2018-05-07T06:03:26.827Z,2.40
2018-05-07T06:05:54.340Z,2.40
2018-05-07T06:08:22.839Z,2.10
2018-05-07T06:10:51.245Z,1.93
2018-05-07T06:13:20.759Z,1.87
2018-05-07T06:15:48.274Z,2.20
2018-05-07T06:18:17.325Z,2.20
2018-05-07T06:20:46.448Z,2.53
2018-05-07T06:23:14.668Z,2.40
2018-05-07T06:25:42.236Z,2.47
2018-05-07T06:28:12.236Z,2.30
2018-05-07T06:30:39.772Z,2.50
2018-05-07T06:33:08.001Z,2.43
2018-05-07T06:35:35.447Z,2.20
2018-05-07T06:38:03.683Z,2.33
2018-05-07T06:40:31.143Z,2.47
2018-05-07T06:42:58.615Z,2.47
2018-05-07T06:45:26.858Z,2.67
2018-05-07T06:47:54.264Z,2.30
2018-05-07T06:50:21.722Z,2.23
2018-05-07T06:52:49.218Z,2.30
2018-05-07T06:55:16.663Z,2.20
2018-05-07T06:57:44.124Z,2.20
2018-05-07T07:00:11.565Z,2.40
2018-05-07T07:02:39.186Z,2.40
2018-05-07T07:05:06.481Z,2.43
2018-05-07T07:07:33.940Z,2.23
2018-05-07T07:10:01.388Z,2.30
2018-05-07T07:12:28.848Z,2.67
2018-05-07T07:14:56.317Z,2.20
2018-05-07T07:17:23.754Z,2.20
2018-05-07T07:19:51.214Z,2.40
2018-05-07T07:22:18.721Z,2.33
2018-05-07T07:24:46.124Z,2.27
2018-05-07T07:27:13.580Z,2.20
2018-05-07T07:29:41.036Z,1.90
2018-05-07T07:32:08.492Z,2.27
2018-05-07T07:34:35.957Z,2.30
2018-05-07T07:37:03.415Z,2.03
2018-05-07T07:39:30.959Z,1.77
2018-05-07T07:41:58.340Z,2.07
2018-05-07T07:44:25.797Z,1.97
2018-05-07T07:46:53.253Z,2.30
2018-05-07T07:49:20.699Z,2.50
2018-05-07T07:51:48.156Z,1.90
2018-05-07T07:54:15.610Z,2.10
2018-05-07T07:56:43.080Z,2.07
2018-05-07T07:59:10.577Z,2.00
2018-05-07T08:01:38.021Z,2.30
2018-05-07T08:04:06.989Z,1.90
2018-05-07T08:06:34.443Z,2.40
2018-05-07T08:09:01.897Z,2.20
2018-05-07T08:11:29.336Z,2.10
2018-05-07T08:13:56.796Z,1.83
2018-05-07T08:16:24.261Z,2.00
2018-05-07T08:18:51.754Z,2.03
2018-05-07T08:21:19.236Z,2.03
2018-05-07T08:23:47.455Z,1.90
2018-05-07T08:26:14.924Z,1.90
2018-05-07T08:28:42.401Z,2.30
2018-05-07T08:31:09.859Z,2.10
2018-05-07T08:33:37.296Z,2.20
2018-05-07T08:36:04.752Z,2.23
2018-05-07T08:38:32.231Z,1.90
2018-05-07T08:40:59.693Z,2.00
2018-05-07T08:43:27.147Z,1.87
2018-05-07T08:45:54.608Z,1.80
2018-05-07T08:48:22.078Z,1.90
2018-05-07T08:50:49.612Z,2.07
2018-05-07T08:53:17.823Z,2.00
2018-05-07T08:55:45.376Z,1.70
2018-05-07T08:58:12.713Z,1.93
2018-05-07T09:00:40.952Z,2.00
2018-05-07T09:03:08.412Z,1.70
2018-05-07T09:05:35.868Z,1.70
2018-05-07T09:08:03.353Z,2.23
2018-05-07T09:10:31.553Z,1.87
2018-05-07T09:12:59.783Z,1.73
2018-05-07T09:15:27.236Z,1.73
2018-05-07T09:17:54.692Z,1.80
2018-05-07T09:20:22.142Z,1.73
2018-05-07T09:22:49.609Z,1.70
2018-05-07T09:25:17.061Z,1.50
2018-05-07T09:27:44.531Z,1.50
2018-05-07T09:30:11.968Z,1.63
2018-05-07T09:32:39.434Z,1.40
2018-05-07T09:35:06.884Z,1.80
2018-05-07T09:37:34.352Z,1.83
2018-05-07T09:40:01.832Z,1.63
2018-05-07T09:42:29.320Z,1.90
2018-05-07T09:44:57.532Z,1.70
2018-05-07T09:47:24.993Z,1.53
2018-05-07T09:49:52.456Z,1.60
2018-05-07T09:52:19.924Z,1.80
2018-05-07T09:54:47.379Z,1.50
2018-05-07T09:57:14.852Z,1.50
2018-05-07T09:59:43.088Z,1.53
2018-05-07T10:02:11.326Z,1.47
2018-05-07T10:04:39.584Z,1.47
2018-05-07T10:07:07.015Z,1.30
2018-05-07T10:09:34.476Z,1.60
2018-05-07T10:12:01.920Z,1.40
2018-05-07T10:14:29.376Z,1.40
2018-05-07T10:16:56.920Z,1.20
2018-05-07T10:19:24.312Z,1.37
2018-05-07T10:21:51.813Z,1.17
2018-05-07T10:24:20.049Z,1.40
2018-05-07T10:26:47.491Z,1.30
2018-05-07T10:29:14.952Z,1.40
2018-05-07T10:31:42.409Z,1.30
2018-05-07T10:34:09.873Z,1.30
2018-05-07T10:36:37.331Z,1.20
2018-05-07T10:39:06.318Z,1.37
2018-05-07T10:41:33.764Z,1.30
2018-05-07T10:44:01.241Z,1.47
2018-05-07T10:46:28.690Z,1.40
2018-05-07T10:48:56.134Z,1.30
2018-05-07T10:51:24.373Z,1.13
2018-05-07T10:53:52.587Z,1.00
2018-05-07T10:56:20.057Z,1.10
2018-05-07T10:58:48.276Z,0.90
2018-05-07T11:01:16.504Z,0.77
2018-05-07T11:03:43.954Z,0.80
2018-05-07T11:06:12.187Z,0.70
2018-05-07T11:08:40.406Z,0.70
2018-05-07T11:11:07.869Z,0.60
2018-05-07T11:13:35.387Z,0.70
2018-05-07T11:16:02.771Z,0.60
2018-05-07T11:18:30.236Z,0.60
2018-05-07T11:20:57.711Z,0.50
2018-05-07T11:23:25.162Z,0.50
2018-05-07T11:25:52.624Z,0.50
2018-05-07T11:28:20.091Z,0.50
2018-05-07T11:30:47.536Z,0.50
2018-05-07T11:33:14.987Z,0.40
2018-05-07T11:35:43.316Z,0.50
2018-05-07T11:38:11.534Z,0.40
2018-05-07T11:40:38.988Z,0.50
2018-05-07T11:43:07.224Z,0.55
2018-05-07T11:45:34.687Z,0.50
2018-05-07T11:48:02.164Z,0.40
2018-05-07T11:50:29.617Z,0.50
2018-05-07T11:52:57.076Z,0.40
2018-05-07T11:55:24.536Z,0.40
2018-05-07T11:57:52.004Z,0.40
2018-05-07T12:00:19.482Z,0.40
2018-05-07T12:02:46.976Z,0.50
2018-05-07T12:05:14.380Z,0.40
2018-05-07T12:07:41.853Z,0.50
2018-05-07T12:10:09.295Z,0.40
2018-05-07T12:12:36.781Z,0.43
2018-05-07T12:15:04.229Z,0.40
2018-05-07T12:17:32.461Z,0.40
2018-05-07T12:19:59.928Z,0.40
2018-05-07T12:22:27.377Z,0.40
2018-05-07T12:24:54.849Z,0.40
2018-05-07T12:27:22.299Z,0.40
2018-05-07T12:29:49.775Z,0.40
2018-05-07T12:32:17.213Z,0.50
2018-05-07T12:34:44.670Z,0.40
2018-05-07T12:37:12.123Z,0.40
2018-05-07T12:39:39.589Z,0.40
2018-05-07T12:42:07.805Z,0.40
2018-05-07T12:44:35.264Z,0.40
2018-05-07T12:47:02.730Z,0.40
2018-05-07T12:49:30.181Z,0.50
2018-05-07T12:51:57.637Z,0.50
2018-05-07T12:54:25.097Z,0.40
2018-05-07T12:56:52.549Z,0.60
2018-05-07T12:59:20.017Z,0.40
2018-05-07T13:01:48.233Z,0.40
2018-05-07T13:04:16.460Z,0.50
2018-05-07T13:09:17.722Z,0.40
2018-05-07T13:11:45.177Z,0.47
2018-05-07T13:14:12.638Z,0.40
2018-05-07T13:16:40.856Z,0.40
2018-05-07T13:19:09.096Z,0.40
2018-05-07T13:21:36.570Z,0.40
2018-05-07T13:24:04.006Z,0.40
2018-05-07T13:26:31.465Z,0.50
2018-05-07T13:28:58.900Z,0.40
2018-05-07T13:31:26.414Z,0.40
2018-05-07T13:33:54.629Z,0.40
2018-05-07T13:36:22.095Z,0.40
2018-05-07T13:38:50.314Z,0.40
2018-05-07T13:41:19.309Z,0.40
2018-05-07T13:43:47.522Z,0.40
2018-05-07T13:46:14.981Z,0.40
2018-05-07T13:48:42.439Z,0.40
2018-05-07T13:51:09.996Z,0.40
2018-05-07T13:53:37.377Z,0.40
2018-05-07T13:56:04.855Z,0.40
2018-05-07T13:58:32.323Z,0.40
2018-05-07T14:00:59.792Z,0.50
2018-05-07T14:03:28.015Z,0.60
2018-05-07T14:05:55.468Z,0.57
2018-05-07T14:08:22.933Z,0.50
2018-05-07T14:10:50.385Z,0.77
2018-05-07T14:13:17.841Z,0.80
2018-05-07T14:15:45.288Z,0.70
2018-05-07T14:18:12.770Z,0.70
2018-05-07T14:20:40.216Z,0.80
2018-05-07T14:23:07.696Z,0.80
2018-05-07T14:25:35.144Z,0.80
2018-05-07T14:28:02.599Z,0.60
2018-05-07T14:30:30.056Z,0.70
2018-05-07T14:32:57.524Z,0.60
2018-05-07T14:35:25.728Z,0.70
2018-05-07T14:37:53.964Z,0.67
2018-05-07T14:40:21.422Z,0.70
2018-05-07T14:42:48.879Z,0.80
2018-05-07T14:45:16.337Z,0.77
2018-05-07T14:47:43.797Z,0.80
2018-05-07T14:50:11.269Z,0.90
2018-05-07T14:52:38.717Z,0.80
2018-05-07T14:55:06.188Z,0.90
2018-05-07T14:57:33.668Z,0.87
2018-05-07T15:00:01.904Z,1.10
2018-05-07T15:02:29.358Z,1.27
2018-05-07T15:04:56.820Z,0.97
2018-05-07T15:07:24.268Z,1.10
2018-05-07T15:09:51.736Z,1.60
2018-05-07T15:12:19.185Z,1.20
2018-05-07T15:14:46.648Z,1.33
2018-05-07T15:17:14.096Z,1.10
2018-05-07T15:19:41.556Z,1.10
2018-05-07T15:22:09.012Z,1.00
2018-05-07T15:24:46.286Z,1.47
2018-05-07T15:27:13.742Z,1.23
2018-05-07T15:29:41.215Z,1.60
2018-05-07T15:32:08.701Z,1.50
2018-05-07T15:34:36.932Z,1.23
2018-05-07T15:37:04.400Z,1.10
2018-05-07T15:39:31.864Z,1.23
2018-05-07T15:41:59.321Z,1.57
2018-05-07T15:44:26.783Z,1.50
2018-05-07T15:46:54.288Z,1.20
2018-05-07T15:49:22.537Z,1.50
2018-05-07T15:51:49.988Z,1.50
2018-05-07T15:54:17.449Z,1.20
2018-05-07T15:56:44.912Z,1.23
2018-05-07T15:59:12.369Z,1.50
2018-05-07T16:01:39.849Z,1.50
2018-05-07T16:04:08.121Z,1.33
2018-05-07T16:06:36.335Z,1.53
2018-05-07T16:09:03.814Z,1.30
2018-05-07T16:11:31.270Z,1.50
2018-05-07T16:13:58.725Z,1.60
2018-05-07T16:16:26.183Z,1.40
2018-05-07T16:18:53.728Z,1.50
2018-05-07T16:21:21.166Z,1.40
2018-05-07T16:23:48.657Z,1.30
2018-05-07T16:26:16.123Z,1.60
2018-05-07T16:28:43.595Z,1.60
2018-05-07T16:31:11.112Z,1.57
2018-05-07T16:33:38.536Z,1.50
2018-05-07T16:36:06.776Z,1.30
2018-05-07T16:38:34.227Z,1.33
2018-05-07T16:41:02.440Z,1.20
2018-05-07T16:43:29.942Z,1.40
2018-05-07T16:45:57.410Z,1.50
2018-05-07T16:48:24.868Z,1.70
2018-05-07T16:50:53.092Z,1.47
2018-05-07T16:53:21.318Z,1.60
2018-05-07T16:55:48.771Z,1.80
2018-05-07T16:58:16.232Z,1.57
2018-05-07T17:00:43.691Z,1.73
2018-05-07T17:03:11.173Z,1.77
2018-05-07T17:05:38.684Z,1.60
2018-05-07T17:08:06.175Z,1.70
2018-05-07T17:10:33.624Z,1.50
2018-05-07T17:13:01.082Z,1.40
2018-05-07T17:15:28.548Z,1.50
2018-05-07T17:17:56.790Z,1.70
2018-05-07T17:20:24.229Z,1.57
2018-05-07T17:22:51.700Z,1.70
2018-05-07T17:25:19.921Z,2.00
2018-05-07T17:27:48.159Z,1.50
2018-05-07T17:30:15.604Z,1.63
2018-05-07T17:32:43.084Z,1.80
2018-05-07T17:35:10.579Z,1.80
2018-05-07T17:37:38.027Z,1.73
2018-05-07T17:40:06.284Z,2.03
2018-05-07T17:42:33.766Z,1.57
2018-05-07T17:45:16.683Z,1.80
2018-05-07T17:47:55.841Z,2.07
2018-05-07T17:50:24.141Z,1.70
2018-05-07T17:52:51.628Z,1.70
2018-05-07T17:55:19.084Z,1.80
2018-05-07T17:57:46.545Z,2.00
2018-05-07T18:00:14.014Z,1.70
2018-05-07T18:02:41.455Z,1.90
2018-05-07T18:05:08.917Z,1.80
2018-05-07T18:07:37.139Z,1.87
2018-05-07T18:10:04.669Z,1.50
2018-05-07T18:12:32.117Z,1.77
2018-05-07T18:14:59.628Z,1.87
2018-05-07T18:17:27.841Z,2.10
2018-05-07T18:19:55.307Z,2.03
2018-05-07T18:22:22.775Z,2.30
2018-05-07T18:24:50.261Z,2.30
2018-05-07T18:27:18.488Z,2.50
2018-05-07T18:29:46.086Z,2.63
2018-05-07T18:32:13.544Z,2.33
2018-05-07T18:34:41.013Z,2.53
2018-05-07T18:37:08.536Z,3.37
2018-05-07T18:39:36.000Z,2.80
2018-05-07T18:42:03.460Z,2.97
2018-05-07T18:44:30.944Z,2.37
2018-05-07T18:46:58.384Z,2.77
2018-05-07T18:49:25.847Z,2.73
2018-05-07T18:51:53.316Z,2.50
2018-05-07T18:54:21.600Z,2.50
2018-05-07T18:56:49.836Z,2.97
2018-05-07T18:59:17.303Z,2.50
2018-05-07T19:01:44.785Z,2.57
2018-05-07T19:04:12.390Z,2.73
2018-05-07T19:06:39.832Z,2.57
2018-05-07T19:09:07.286Z,2.30
2018-05-07T19:11:34.747Z,2.47
2018-05-07T19:14:02.205Z,2.53
2018-05-07T19:16:29.657Z,2.20
2018-05-07T19:18:57.117Z,2.50
2018-05-07T19:21:25.348Z,2.33
2018-05-07T19:23:52.822Z,2.40
2018-05-07T19:26:21.086Z,2.23
2018-05-07T19:28:48.558Z,2.00
2018-05-07T19:31:16.792Z,2.60
2018-05-07T19:33:44.260Z,2.47
2018-05-07T19:36:11.717Z,2.50
2018-05-07T19:38:39.176Z,2.27
2018-05-07T19:41:06.663Z,2.20
2018-05-07T19:43:35.615Z,2.00
2018-05-07T19:46:03.856Z,2.03
2018-05-07T19:48:31.340Z,2.60
2018-05-07T19:50:58.768Z,2.47
2018-05-07T19:53:26.243Z,2.20
2018-05-07T19:55:53.713Z,2.10
2018-05-07T19:58:21.173Z,2.30
2018-05-07T20:00:48.633Z,2.27
2018-05-07T20:03:16.092Z,2.13
2018-05-07T20:05:43.607Z,2.53
2018-05-07T20:08:11.073Z,2.63
2018-05-07T20:10:38.523Z,3.63
2018-05-07T20:13:06.748Z,2.83
2018-05-07T20:15:34.208Z,3.70
2018-05-07T20:18:01.681Z,3.60
2018-05-07T20:20:29.153Z,3.80
2018-05-07T20:22:56.619Z,4.37
2018-05-07T20:25:24.937Z,4.10
2018-05-07T20:27:52.397Z,3.90
2018-05-07T20:30:19.914Z,4.57
2018-05-07T20:32:48.165Z,3.23
2018-05-07T20:35:15.612Z,4.27
2018-05-07T20:37:43.872Z,3.93
2018-05-07T20:40:12.093Z,4.20
2018-05-07T20:42:39.549Z,4.50
2018-05-07T20:45:07.012Z,3.90
2018-05-07T20:47:35.258Z,4.07
2018-05-07T20:50:02.744Z,3.97
2018-05-07T20:52:30.969Z,3.87
2018-05-07T20:54:58.440Z,3.80
2018-05-07T20:57:26.406Z,3.70
2018-05-07T20:59:53.869Z,3.33
2018-05-07T21:02:21.342Z,4.27
2018-05-07T21:04:48.794Z,3.50
2018-05-07T21:07:16.273Z,3.07
2018-05-07T21:09:43.732Z,3.53
2018-05-07T21:12:11.957Z,3.70
2018-05-07T21:14:39.414Z,3.20
2018-05-07T21:17:06.860Z,3.60
2018-05-07T21:19:34.397Z,3.40
2018-05-07T21:22:01.792Z,3.23
2018-05-07T21:24:29.406Z,3.20
2018-05-07T21:26:57.632Z,2.70
2018-05-07T21:29:25.104Z,3.00
2018-05-07T21:31:52.592Z,2.60
2018-05-07T21:34:20.816Z,3.40
2018-05-07T21:36:48.293Z,3.00
2018-05-07T21:39:15.747Z,2.60
2018-05-07T21:41:43.224Z,2.83
2018-05-07T21:44:10.674Z,2.70
2018-05-07T21:46:38.136Z,3.00
2018-05-07T21:49:05.608Z,2.90
2018-05-07T21:51:33.840Z,3.03
2018-05-07T21:54:01.301Z,2.50
2018-05-07T21:56:28.755Z,2.60
2018-05-07T21:58:56.980Z,2.47
2018-05-07T22:01:25.217Z,2.40
2018-05-07T22:03:52.676Z,2.43
2018-05-07T22:06:20.145Z,2.67
2018-05-07T22:08:49.120Z,2.70
2018-05-07T22:11:16.576Z,2.80
2018-05-07T22:13:45.843Z,2.60
2018-05-07T22:16:13.305Z,2.70
2018-05-07T22:18:40.761Z,2.53
2018-05-07T22:21:08.231Z,2.70
2018-05-07T22:23:35.705Z,2.80
2018-05-07T22:26:03.274Z,2.83
2018-05-07T22:28:31.428Z,2.53
2018-05-07T22:30:58.894Z,2.97
2018-05-07T22:33:26.363Z,2.83
2018-05-07T22:35:53.863Z,2.63
2018-05-07T22:38:22.063Z,2.63
2018-05-07T22:40:49.537Z,2.67
2018-05-07T22:43:17.002Z,2.00
2018-05-07T22:45:44.488Z,2.80
2018-05-07T22:48:11.943Z,2.60
2018-05-07T22:50:39.429Z,2.40
2018-05-07T22:53:07.655Z,2.27
2018-05-07T22:55:35.120Z,2.50
2018-05-07T22:58:02.602Z,2.50
2018-05-07T23:00:30.071Z,2.40
2018-05-07T23:02:58.308Z,2.33
2018-05-07T23:05:25.753Z,2.10
2018-05-07T23:07:53.213Z,2.60
2018-05-07T23:10:21.431Z,2.40
2018-05-07T23:12:49.656Z,2.50
2018-05-07T23:15:17.116Z,2.57
2018-05-07T23:17:44.571Z,2.43
2018-05-07T23:20:12.030Z,2.70
2018-05-07T23:22:39.491Z,2.37
2018-05-07T23:25:06.947Z,2.47
2018-05-07T23:27:34.401Z,2.40
2018-05-07T23:30:01.860Z,2.30
2018-05-07T23:32:30.087Z,2.50
2018-05-07T23:34:58.312Z,2.10
2018-05-07T23:37:25.767Z,2.40
2018-05-07T23:39:53.220Z,2.53
2018-05-07T23:42:20.683Z,2.40
2018-05-07T23:44:48.140Z,2.33
2018-05-07T23:47:15.624Z,2.80
2018-05-07T23:49:43.079Z,2.40
2018-05-07T23:52:10.536Z,2.83
2018-05-07T23:54:38.000Z,2.50
2018-05-07T23:57:05.451Z,2.60
2018-05-07T23:59:32.915Z,2.70
